Time;durP1;ratioP1;P1;durP2;ratioP2;P2;SDS_P1;SDS_P2;PMS_P1;PMS_P2;Temp;Humidity;BMP_temperature;BMP_pressure;BME280_temperature;BME280_humidity;BME280_pressure;Samples;Min_cycle;Max_cycle;Signal;HPM_P1;HPM_P2
2022/04/09 00:00:53;;;;;;;0.10;0.10;;;;;;;;;;4907699;29;20479;-93
2022/04/09 00:03:19;;;;;;;0.13;0.13;;;;;;;;;;4907193;29;20039;-94
2022/04/09 00:05:44;;;;;;;0.10;0.10;;;;;;;;;;4908039;29;20043;-93
2022/04/09 00:08:10;;;;;;;0.10;0.10;;;;;;;;;;4929146;28;20066;-94
2022/04/09 00:10:37;;;;;;;0.10;0.10;;;;;;;;;;4941997;28;20050;-94
2022/04/09 00:13:03;;;;;;;0.10;0.10;;;;;;;;;;4941820;28;20038;-94
2022/04/09 00:15:29;;;;;;;0.10;0.10;;;;;;;;;;4958308;28;20051;-94
2022/04/09 00:17:55;;;;;;;0.10;0.10;;;;;;;;;;4941658;28;20051;-93
2022/04/09 00:20:21;;;;;;;0.10;0.10;;;;;;;;;;4942465;28;20050;-93
2022/04/09 00:22:47;;;;;;;0.10;0.10;;;;;;;;;;4941789;28;20046;-94
2022/04/09 00:25:21;;;;;;;0.15;0.10;;;;;;;;;;4941804;28;20043;-94
2022/04/09 00:27:47;;;;;;;0.10;0.10;;;;;;;;;;4942689;28;20038;-95
2022/04/09 00:30:13;;;;;;;0.10;0.10;;;;;;;;;;4941595;28;20034;-94
2022/04/09 00:32:39;;;;;;;0.10;0.10;;;;;;;;;;4941622;28;20042;-92
2022/04/09 00:35:05;;;;;;;0.10;0.10;;;;;;;;;;4941312;28;20458;-93
2022/04/09 00:37:32;;;;;;;0.10;0.10;;;;;;;;;;4941729;28;20506;-92
2022/04/09 00:39:58;;;;;;;0.10;0.10;;;;;;;;;;4941341;28;20086;-92
2022/04/09 00:42:24;;;;;;;0.10;0.10;;;;;;;;;;4941770;28;20085;-92
2022/04/09 00:44:50;;;;;;;0.10;0.10;;;;;;;;;;4941648;28;20082;-93
2022/04/09 00:47:16;;;;;;;0.10;0.10;;;;;;;;;;4941630;28;20591;-93
2022/04/09 00:49:42;;;;;;;0.10;0.10;;;;;;;;;;4941134;28;20045;-92
2022/04/09 00:52:09;;;;;;;0.10;0.10;;;;;;;;;;4941619;28;20043;-94
2022/04/09 00:54:39;;;;;;;0.10;0.10;;;;;;;;;;4941772;28;20046;-94
2022/04/09 00:57:06;;;;;;;0.10;0.10;;;;;;;;;;4941754;28;20501;-93
2022/04/09 00:59:34;;;;;;;0.10;0.10;;;;;;;;;;4941569;28;20110;-94
2022/04/09 01:02:00;;;;;;;0.10;0.10;;;;;;;;;;4941285;28;20549;-92
2022/04/09 01:04:26;;;;;;;0.10;0.10;;;;;;;;;;4940821;28;20038;-92
2022/04/09 01:06:52;;;;;;;0.10;0.10;;;;;;;;;;4942027;28;20122;-93
2022/04/09 01:09:18;;;;;;;0.10;0.10;;;;;;;;;;4942279;28;20057;-93
2022/04/09 01:11:44;;;;;;;0.10;0.10;;;;;;;;;;4946855;28;20039;-93
2022/04/09 01:14:11;;;;;;;0.10;0.10;;;;;;;;;;4946571;28;20039;-92
2022/04/09 01:16:37;;;;;;;0.10;0.10;;;;;;;;;;4946658;28;20072;-93
2022/04/09 01:19:03;;;;;;;0.30;0.30;;;;;;;;;;4947093;28;20101;-92
2022/04/09 01:21:29;;;;;;;0.10;0.10;;;;;;;;;;4947308;28;20180;-93
2022/04/09 01:23:55;;;;;;;0.10;0.10;;;;;;;;;;4947697;28;20076;-93
2022/04/09 01:26:21;;;;;;;0.10;0.10;;;;;;;;;;4959947;28;20563;-92
2022/04/09 01:28:48;;;;;;;0.10;0.10;;;;;;;;;;4968323;28;20038;-93
2022/04/09 01:31:14;;;;;;;0.28;0.28;;;;;;;;;;4963601;28;20063;-93
2022/04/09 01:33:40;;;;;;;0.20;0.20;;;;;;;;;;4947372;28;20045;-92
2022/04/09 01:36:06;;;;;;;0.10;0.10;;;;;;;;;;4949165;28;20136;-92
2022/04/09 01:38:36;;;;;;;0.10;0.10;;;;;;;;;;4967960;28;20047;-93
2022/04/09 01:41:03;;;;;;;0.10;0.10;;;;;;;;;;4967510;28;20038;-93
2022/04/09 01:43:29;;;;;;;0.10;0.10;;;;;;;;;;4948235;28;20043;-93
2022/04/09 01:45:55;;;;;;;0.10;0.10;;;;;;;;;;4947025;28;20039;-94
2022/04/09 01:48:21;;;;;;;0.10;0.10;;;;;;;;;;4946489;28;20057;-93
2022/04/09 01:50:47;;;;;;;0.10;0.10;;;;;;;;;;4946407;28;20125;-93
2022/04/09 01:53:13;;;;;;;0.10;0.10;;;;;;;;;;4958664;28;20046;-90
2022/04/09 01:55:39;;;;;;;0.10;0.10;;;;;;;;;;4945953;28;20042;-93
2022/04/09 01:58:05;;;;;;;0.10;0.10;;;;;;;;;;4946835;28;20046;-92
2022/04/09 02:00:31;;;;;;;0.10;0.10;;;;;;;;;;4962127;28;20047;-95
2022/04/09 02:02:57;;;;;;;0.10;0.10;;;;;;;;;;4946138;28;20133;-94
2022/04/09 02:05:25;;;;;;;0.20;0.20;;;;;;;;;;4946426;28;20049;-93
2022/04/09 02:07:51;;;;;;;0.10;0.10;;;;;;;;;;4902397;29;1189580;-94
2022/04/09 02:10:18;;;;;;;0.10;0.10;;;;;;;;;;4943908;29;20098;-93
2022/04/09 02:12:44;;;;;;;0.10;0.10;;;;;;;;;;4943563;29;20047;-92
2022/04/09 02:15:10;;;;;;;0.10;0.10;;;;;;;;;;4943582;29;20411;-94
2022/04/09 02:17:38;;;;;;;0.10;0.10;;;;;;;;;;4943598;29;20130;-93
2022/04/09 02:20:04;;;;;;;0.10;0.10;;;;;;;;;;4943108;28;20134;-93
2022/04/09 02:22:37;;;;;;;0.10;0.10;;;;;;;;;;4939401;29;20047;-93
2022/04/09 02:25:07;;;;;;;0.10;0.10;;;;;;;;;;4940641;29;20045;-93
2022/04/09 02:27:33;;;;;;;0.10;0.10;;;;;;;;;;4940209;29;20040;-92
2022/04/09 02:30:03;;;;;;;0.10;0.10;;;;;;;;;;4940313;29;20094;-92
2022/04/09 02:32:29;;;;;;;0.10;0.10;;;;;;;;;;4940482;29;20494;-92
2022/04/09 02:34:56;;;;;;;0.10;0.10;;;;;;;;;;4940293;29;20074;-92
2022/04/09 02:37:22;;;;;;;0.10;0.10;;;;;;;;;;4940206;29;20089;-92
2022/04/09 02:39:49;;;;;;;0.30;0.30;;;;;;;;;;4940345;29;20050;-92
2022/04/09 02:42:15;;;;;;;0.10;0.10;;;;;;;;;;4939911;29;20043;-93
2022/04/09 02:44:43;;;;;;;0.10;0.10;;;;;;;;;;4940203;29;20046;-92
2022/04/09 02:47:09;;;;;;;2.15;0.15;;;;;;;;;;4939869;29;20554;-93
2022/04/09 02:49:35;;;;;;;0.10;0.10;;;;;;;;;;4940243;29;20382;-93
2022/04/09 02:52:01;;;;;;;0.10;0.10;;;;;;;;;;4939965;29;20134;-92
2022/04/09 02:54:27;;;;;;;0.10;0.10;;;;;;;;;;4940243;29;20194;-92
2022/04/09 02:56:53;;;;;;;0.10;0.10;;;;;;;;;;4939689;29;20047;-92
2022/04/09 02:59:19;;;;;;;0.10;0.10;;;;;;;;;;4939794;29;20134;-92
2022/04/09 03:01:46;;;;;;;0.10;0.10;;;;;;;;;;4939848;28;20047;-92
2022/04/09 03:04:12;;;;;;;0.10;0.10;;;;;;;;;;4939878;29;20095;-93
2022/04/09 03:06:38;;;;;;;0.10;0.10;;;;;;;;;;4939622;29;20471;-92
2022/04/09 03:09:04;;;;;;;0.10;0.10;;;;;;;;;;4939476;29;20088;-92
2022/04/09 03:11:30;;;;;;;0.10;0.10;;;;;;;;;;4939424;28;20139;-92
2022/04/09 03:13:56;;;;;;;0.10;0.10;;;;;;;;;;4939706;29;20523;-93
2022/04/09 03:16:22;;;;;;;0.10;0.10;;;;;;;;;;4939820;29;20296;-92
2022/04/09 03:18:48;;;;;;;0.10;0.10;;;;;;;;;;4939495;29;20086;-92
2022/04/09 03:21:14;;;;;;;0.10;0.10;;;;;;;;;;4939427;29;20491;-92
2022/04/09 03:23:40;;;;;;;0.10;0.10;;;;;;;;;;4939350;29;20094;-93
2022/04/09 03:26:06;;;;;;;0.10;0.10;;;;;;;;;;4939472;29;20043;-92
2022/04/09 03:28:32;;;;;;;0.10;0.10;;;;;;;;;;4939562;29;20102;-92
2022/04/09 03:30:58;;;;;;;0.10;0.10;;;;;;;;;;4939451;29;20130;-92
2022/04/09 03:33:24;;;;;;;0.10;0.10;;;;;;;;;;4938817;29;20134;-93
2022/04/09 03:35:54;;;;;;;0.10;0.10;;;;;;;;;;4939179;29;20047;-92
2022/04/09 03:38:20;;;;;;;0.10;0.10;;;;;;;;;;4939329;29;20483;-93
2022/04/09 03:40:46;;;;;;;0.10;0.10;;;;;;;;;;4938956;29;20186;-92
2022/04/09 03:43:12;;;;;;;0.10;0.10;;;;;;;;;;4938843;29;20138;-93
2022/04/09 03:45:38;;;;;;;0.10;0.10;;;;;;;;;;4938971;29;20039;-92
2022/04/09 03:48:05;;;;;;;0.10;0.10;;;;;;;;;;4938755;29;20114;-94
2022/04/09 03:50:31;;;;;;;0.10;0.10;;;;;;;;;;4939078;29;20043;-91
2022/04/09 03:52:58;;;;;;;0.10;0.10;;;;;;;;;;4938467;29;20491;-91
2022/04/09 03:55:25;;;;;;;0.10;0.10;;;;;;;;;;4938613;29;20066;-91
2022/04/09 03:57:51;;;;;;;0.10;0.10;;;;;;;;;;4938788;29;20054;-91
2022/04/09 04:00:18;;;;;;;0.10;0.10;;;;;;;;;;4938600;29;20394;-92
2022/04/09 04:02:44;;;;;;;0.10;0.10;;;;;;;;;;4938738;29;20041;-93
2022/04/09 04:05:10;;;;;;;0.10;0.10;;;;;;;;;;4938814;29;20130;-92
2022/04/09 04:07:36;;;;;;;0.10;0.10;;;;;;;;;;4938701;28;20071;-93
2022/04/09 04:10:08;;;;;;;0.10;0.10;;;;;;;;;;4923054;29;20041;-93
2022/04/09 04:12:34;;;;;;;0.10;0.10;;;;;;;;;;4907739;29;20043;-94
2022/04/09 04:15:00;;;;;;;0.10;0.10;;;;;;;;;;4907349;29;20483;-93
2022/04/09 04:17:26;;;;;;;0.10;0.10;;;;;;;;;;4938556;29;20047;-92
2022/04/09 04:19:52;;;;;;;0.10;0.10;;;;;;;;;;4906695;29;20043;-92
2022/04/09 04:22:18;;;;;;;0.10;0.10;;;;;;;;;;4907027;29;20505;-92
2022/04/09 04:24:44;;;;;;;0.10;0.10;;;;;;;;;;4907005;29;20038;-92
2022/04/09 04:27:10;;;;;;;0.10;0.10;;;;;;;;;;4906905;29;20454;-93
2022/04/09 04:29:36;;;;;;;0.10;0.10;;;;;;;;;;4906863;29;20078;-92
2022/04/09 04:32:02;;;;;;;0.10;0.10;;;;;;;;;;4906808;29;20099;-92
2022/04/09 04:34:28;;;;;;;0.10;0.10;;;;;;;;;;4906709;29;20106;-93
2022/04/09 04:36:54;;;;;;;0.10;0.10;;;;;;;;;;4906680;29;20482;-91
2022/04/09 04:39:20;;;;;;;0.10;0.10;;;;;;;;;;4906589;29;20043;-93
2022/04/09 04:41:46;;;;;;;0.10;0.10;;;;;;;;;;4906323;29;20043;-92
2022/04/09 04:44:12;;;;;;;0.10;0.10;;;;;;;;;;4905997;29;20050;-91
2022/04/09 04:46:41;;;;;;;0.10;0.10;;;;;;;;;;4906931;29;20035;-93
2022/04/09 04:49:07;;;;;;;0.10;0.10;;;;;;;;;;4906579;29;20054;-94
2022/04/09 04:51:33;;;;;;;0.10;0.10;;;;;;;;;;4906621;28;20109;-94
2022/04/09 04:54:01;;;;;;;0.10;0.10;;;;;;;;;;4907049;29;20126;-93
2022/04/09 04:56:28;;;;;;;0.10;0.10;;;;;;;;;;4906865;29;20514;-93
2022/04/09 04:58:54;;;;;;;0.10;0.10;;;;;;;;;;4922621;29;20501;-93
2022/04/09 05:01:20;;;;;;;0.10;0.10;;;;;;;;;;4906401;29;20495;-94
2022/04/09 05:03:46;;;;;;;0.10;0.10;;;;;;;;;;4906143;29;20130;-93
2022/04/09 05:06:12;;;;;;;0.10;0.10;;;;;;;;;;4906565;29;20074;-94
2022/04/09 05:08:40;;;;;;;0.10;0.10;;;;;;;;;;4906470;29;20138;-94
2022/04/09 05:11:06;;;;;;;0.10;0.10;;;;;;;;;;4906848;29;20074;-94
2022/04/09 05:13:32;;;;;;;0.20;0.20;;;;;;;;;;4906434;29;20050;-94
2022/04/09 05:15:58;;;;;;;0.10;0.10;;;;;;;;;;4906506;29;20053;-94
2022/04/09 05:18:24;;;;;;;0.10;0.10;;;;;;;;;;4905914;29;20055;-91
2022/04/09 05:20:51;;;;;;;0.10;0.10;;;;;;;;;;4906117;29;20313;-90
2022/04/09 05:23:17;;;;;;;0.10;0.10;;;;;;;;;;4905689;29;20207;-91
2022/04/09 05:25:43;;;;;;;0.10;0.10;;;;;;;;;;4905751;29;20126;-91
2022/04/09 05:28:09;;;;;;;0.10;0.10;;;;;;;;;;4937299;29;20562;-90
2022/04/09 05:30:35;;;;;;;0.10;0.10;;;;;;;;;;4921798;29;20045;-91
2022/04/09 05:33:01;;;;;;;0.10;0.10;;;;;;;;;;4921218;29;20130;-91
2022/04/09 05:35:27;;;;;;;0.13;0.13;;;;;;;;;;4905978;29;20568;-91
2022/04/09 05:37:53;;;;;;;0.10;0.10;;;;;;;;;;4905467;29;20078;-90
2022/04/09 05:40:19;;;;;;;0.10;0.10;;;;;;;;;;4905667;29;20149;-91
2022/04/09 05:42:45;;;;;;;0.10;0.10;;;;;;;;;;4922831;28;20120;-91
2022/04/09 05:45:11;;;;;;;0.10;0.10;;;;;;;;;;4924705;28;20050;-89
2022/04/09 05:47:41;;;;;;;0.10;0.10;;;;;;;;;;4924295;28;20489;-89
2022/04/09 05:50:08;;;;;;;0.10;0.10;;;;;;;;;;4940181;28;20039;-91
2022/04/09 05:52:34;;;;;;;0.10;0.10;;;;;;;;;;4924325;28;20537;-90
2022/04/09 05:55:03;;;;;;;0.10;0.10;;;;;;;;;;4924568;28;20271;-90
2022/04/09 05:57:29;;;;;;;0.10;0.10;;;;;;;;;;4943937;28;20035;-89
2022/04/09 05:59:55;;;;;;;0.10;0.10;;;;;;;;;;4927704;28;20043;-90
2022/04/09 06:02:21;;;;;;;0.10;0.10;;;;;;;;;;4928199;28;20074;-89
2022/04/09 06:04:47;;;;;;;0.10;0.10;;;;;;;;;;4935103;28;20065;-90
2022/04/09 06:07:13;;;;;;;0.10;0.10;;;;;;;;;;4948865;28;20038;-88
2022/04/09 06:09:42;;;;;;;0.10;0.10;;;;;;;;;;4947247;28;20054;-90
2022/04/09 06:12:09;;;;;;;0.10;0.10;;;;;;;;;;4946726;28;20054;-90
2022/04/09 06:14:35;;;;;;;0.10;0.10;;;;;;;;;;4949014;28;20081;-90
2022/04/09 06:17:02;;;;;;;0.10;0.10;;;;;;;;;;4950246;28;20129;-90
2022/04/09 06:19:29;;;;;;;0.13;0.13;;;;;;;;;;4980155;28;20047;-90
2022/04/09 06:21:56;;;;;;;0.10;0.10;;;;;;;;;;4963272;28;20046;-93
2022/04/09 06:24:25;;;;;;;0.10;0.10;;;;;;;;;;4963664;28;20045;-95
2022/04/09 06:26:51;;;;;;;0.10;0.10;;;;;;;;;;4947385;28;20081;-94
2022/04/09 06:29:17;;;;;;;0.10;0.10;;;;;;;;;;4963193;28;20045;-93
2022/04/09 06:31:47;;;;;;;0.10;0.10;;;;;;;;;;4947000;28;20096;-93
2022/04/09 06:34:16;;;;;;;0.10;0.10;;;;;;;;;;4978981;28;20038;-92
2022/04/09 06:36:42;;;;;;;0.10;0.10;;;;;;;;;;4963164;28;20454;-92
2022/04/09 06:39:08;;;;;;;0.10;0.10;;;;;;;;;;4946705;28;20039;-93
2022/04/09 06:41:35;;;;;;;0.10;0.10;;;;;;;;;;4946718;28;20046;-92
2022/04/09 06:44:01;;;;;;;0.10;0.10;;;;;;;;;;4962847;28;20448;-91
2022/04/09 06:46:27;;;;;;;0.10;0.10;;;;;;;;;;4946937;28;20041;-93
2022/04/09 06:48:53;;;;;;;0.10;0.10;;;;;;;;;;4947046;28;20034;-93
2022/04/09 06:51:19;;;;;;;0.10;0.10;;;;;;;;;;4946092;28;20069;-88
2022/04/09 06:53:45;;;;;;;0.08;0.08;;;;;;;;;;4946110;28;20054;-90
2022/04/09 06:56:11;;;;;;;0.10;0.10;;;;;;;;;;4962044;28;20038;-90
2022/04/09 06:58:37;;;;;;;0.10;0.10;;;;;;;;;;4946555;28;20045;-89
2022/04/09 07:01:04;;;;;;;0.10;0.10;;;;;;;;;;4945610;28;20045;-87
2022/04/09 07:03:30;;;;;;;0.10;0.10;;;;;;;;;;4945450;28;20111;-88
2022/04/09 07:05:56;;;;;;;0.10;0.10;;;;;;;;;;4945543;28;20058;-88
2022/04/09 07:08:22;;;;;;;0.10;0.10;;;;;;;;;;4944701;28;20510;-87
2022/04/09 07:10:48;;;;;;;0.10;0.10;;;;;;;;;;4945610;28;20054;-88
2022/04/09 07:13:14;;;;;;;0.10;0.10;;;;;;;;;;4944782;28;20054;-87
2022/04/09 07:15:40;;;;;;;0.10;0.10;;;;;;;;;;4945383;28;20042;-88
2022/04/09 07:18:06;;;;;;;0.10;0.10;;;;;;;;;;4945235;28;20542;-88
2022/04/09 07:20:36;;;;;;;0.10;0.10;;;;;;;;;;4961077;28;20038;-88
2022/04/09 07:23:02;;;;;;;0.10;0.10;;;;;;;;;;4945065;28;20055;-88
2022/04/09 07:25:29;;;;;;;0.10;0.10;;;;;;;;;;4945020;28;20073;-88
2022/04/09 07:27:55;;;;;;;0.10;0.10;;;;;;;;;;4945197;28;20042;-89
2022/04/09 07:30:24;;;;;;;0.28;0.28;;;;;;;;;;4945207;28;20101;-89
2022/04/09 07:32:50;;;;;;;0.10;0.10;;;;;;;;;;4976959;28;20046;-90
2022/04/09 07:35:16;;;;;;;0.10;0.10;;;;;;;;;;4945565;28;20445;-86
2022/04/09 07:37:42;;;;;;;0.25;0.25;;;;;;;;;;4961020;28;20077;-89
2022/04/09 07:40:12;;;;;;;0.10;0.10;;;;;;;;;;4960839;28;20050;-88
2022/04/09 07:42:39;;;;;;;0.63;0.50;;;;;;;;;;4960784;28;20038;-88
2022/04/09 07:45:05;;;;;;;0.80;0.32;;;;;;;;;;4960796;28;20071;-89
2022/04/09 07:47:31;;;;;;;0.20;0.20;;;;;;;;;;4944658;28;20034;-87
2022/04/09 07:49:57;;;;;;;0.10;0.10;;;;;;;;;;4944871;28;20096;-87
2022/04/09 07:52:23;;;;;;;0.10;0.10;;;;;;;;;;4960342;28;20042;-87
2022/04/09 07:54:50;;;;;;;0.38;0.38;;;;;;;;;;4976273;28;20050;-87
2022/04/09 07:57:16;;;;;;;0.10;0.10;;;;;;;;;;4960632;28;20042;-87
2022/04/09 07:59:42;;;;;;;0.10;0.10;;;;;;;;;;4944588;28;20193;-87
2022/04/09 08:02:08;;;;;;;0.10;0.10;;;;;;;;;;4944442;28;20521;-87
2022/04/09 08:04:34;;;;;;;4.38;0.20;;;;;;;;;;4944307;28;20042;-89
2022/04/09 08:07:00;;;;;;;0.10;0.10;;;;;;;;;;4961005;28;20040;-88
2022/04/09 08:09:26;;;;;;;0.32;0.32;;;;;;;;;;4944077;28;20128;-87
2022/04/09 08:11:53;;;;;;;0.15;0.15;;;;;;;;;;4944127;28;20052;-88
2022/04/09 08:14:19;;;;;;;0.10;0.10;;;;;;;;;;4944457;28;20124;-88
2022/04/09 08:16:46;;;;;;;0.10;0.10;;;;;;;;;;4960251;28;20053;-88
2022/04/09 08:19:15;;;;;;;0.10;0.10;;;;;;;;;;4960391;28;20053;-87
2022/04/09 08:21:41;;;;;;;0.10;0.10;;;;;;;;;;4944181;28;20042;-88
2022/04/09 08:24:07;;;;;;;0.10;0.10;;;;;;;;;;4960083;28;20038;-90
2022/04/09 08:26:33;;;;;;;0.10;0.10;;;;;;;;;;4934386;28;20058;-89
2022/04/09 08:29:00;;;;;;;0.20;0.20;;;;;;;;;;4924821;28;20062;-89
2022/04/09 08:31:26;;;;;;;0.10;0.10;;;;;;;;;;4940873;28;20082;-89
2022/04/09 08:33:52;;;;;;;0.10;0.10;;;;;;;;;;4943038;28;20496;-88
2022/04/09 08:36:19;;;;;;;0.70;0.30;;;;;;;;;;4944111;28;20054;-89
2022/04/09 08:38:45;;;;;;;0.10;0.10;;;;;;;;;;4943995;28;20053;-89
2022/04/09 08:41:14;;;;;;;0.10;0.10;;;;;;;;;;4941025;28;20394;-89
2022/04/09 08:43:40;;;;;;;0.10;0.10;;;;;;;;;;4956180;28;20134;-89
2022/04/09 08:46:06;;;;;;;0.10;0.10;;;;;;;;;;4924880;28;20074;-88
2022/04/09 08:48:32;;;;;;;0.10;0.10;;;;;;;;;;4924880;28;20054;-88
2022/04/09 08:50:58;;;;;;;0.10;0.10;;;;;;;;;;4940314;28;20046;-90
2022/04/09 08:53:24;;;;;;;4.90;0.57;;;;;;;;;;4924569;28;20100;-90
2022/04/09 08:55:51;;;;;;;0.10;0.10;;;;;;;;;;4940541;28;20053;-89
2022/04/09 08:58:17;;;;;;;0.10;0.10;;;;;;;;;;4940476;28;20049;-88
2022/04/09 09:00:45;;;;;;;0.10;0.10;;;;;;;;;;4924559;28;20038;-88
2022/04/09 09:03:15;;;;;;;0.20;0.20;;;;;;;;;;4937138;28;20054;-88
2022/04/09 09:05:52;;;;;;;0.10;0.10;;;;;;;;;;4959027;28;20046;-88
2022/04/09 09:08:38;;;;;;;0.10;0.10;;;;;;;;;;4960396;28;20137;-89
2022/04/09 09:11:04;;;;;;;0.10;0.10;;;;;;;;;;4959598;28;20370;-88
2022/04/09 09:13:30;;;;;;;0.20;0.20;;;;;;;;;;4943443;28;20100;-87
2022/04/09 09:15:56;;;;;;;0.10;0.10;;;;;;;;;;4943122;28;20042;-88
2022/04/09 09:18:27;;;;;;;0.10;0.10;;;;;;;;;;4943508;28;20050;-89
2022/04/09 09:20:53;;;;;;;0.20;0.20;;;;;;;;;;4975239;28;20042;-88
2022/04/09 09:23:23;;;;;;;0.65;0.25;;;;;;;;;;4943245;28;20053;-89
2022/04/09 09:25:49;;;;;;;0.10;0.10;;;;;;;;;;4943637;28;20393;-88
2022/04/09 09:28:22;;;;;;;0.15;0.15;;;;;;;;;;4943365;28;20045;-88
2022/04/09 09:30:48;;;;;;;0.10;0.10;;;;;;;;;;4944958;28;20389;-87
2022/04/09 09:33:15;;;;;;;0.10;0.10;;;;;;;;;;4946926;28;20049;-87
2022/04/09 09:35:48;;;;;;;0.10;0.10;;;;;;;;;;4962924;28;20042;-87
2022/04/09 09:38:20;;;;;;;0.10;0.10;;;;;;;;;;4963312;28;20428;-86
2022/04/09 09:40:46;;;;;;;0.10;0.10;;;;;;;;;;4962825;28;20042;-87
2022/04/09 09:43:19;;;;;;;1.08;0.20;;;;;;;;;;4946456;28;20133;-88
2022/04/09 09:45:45;;;;;;;;;;;;;;;;;;4947188;28;20042;-88
2022/04/09 09:48:19;;;;;;;0.10;0.10;;;;;;;;;;4962610;28;20060;-88
2022/04/09 09:50:45;;;;;;;0.10;0.10;;;;;;;;;;4962873;28;20213;-87
2022/04/09 09:53:11;;;;;;;0.10;0.10;;;;;;;;;;4962598;28;20051;-87
2022/04/09 09:55:43;;;;;;;0.10;0.10;;;;;;;;;;4962432;28;20038;-88
2022/04/09 09:58:16;;;;;;;0.10;0.10;;;;;;;;;;4946717;28;20057;-87
2022/04/09 10:00:43;;;;;;;0.10;0.10;;;;;;;;;;4978686;28;20042;-92
2022/04/09 10:03:13;;;;;;;0.32;0.13;;;;;;;;;;4978635;28;20067;-88
2022/04/09 10:05:43;;;;;;;0.10;0.10;;;;;;;;;;4946880;28;20121;-91
2022/04/09 10:08:10;;;;;;;0.10;0.10;;;;;;;;;;4962336;28;20059;-87
2022/04/09 10:10:37;;;;;;;0.10;0.10;;;;;;;;;;4947798;28;20046;-90
2022/04/09 10:13:06;;;;;;;0.10;0.10;;;;;;;;;;4969561;28;20038;-88
2022/04/09 10:15:32;;;;;;;0.20;0.20;;;;;;;;;;4964991;28;20505;-88
2022/04/09 10:17:59;;;;;;;0.10;0.10;;;;;;;;;;4963229;28;20046;-90
2022/04/09 10:20:27;;;;;;;0.10;0.10;;;;;;;;;;4968980;28;20057;-90
2022/04/09 10:22:55;;;;;;;0.10;0.10;;;;;;;;;;4970102;28;20057;-88
2022/04/09 10:25:24;;;;;;;0.10;0.10;;;;;;;;;;4970130;28;20042;-92
2022/04/09 10:27:53;;;;;;;0.10;0.10;;;;;;;;;;4964938;28;20069;-89
2022/04/09 10:30:19;;;;;;;0.13;0.13;;;;;;;;;;4947510;28;20042;-88
2022/04/09 10:32:46;;;;;;;0.10;0.10;;;;;;;;;;4967930;28;20038;-89
2022/04/09 10:35:24;;;;;;;0.10;0.10;;;;;;;;;;4949738;28;20042;-88
2022/04/09 10:38:13;;;;;;;0.10;0.10;;;;;;;;;;4962667;28;20038;-89
2022/04/09 10:40:57;;;;;;;0.20;0.20;;;;;;;;;;4962020;28;20511;-88
2022/04/09 10:43:25;;;;;;;0.10;0.10;;;;;;;;;;4960769;28;20043;-89
2022/04/09 10:46:01;;;;;;;0.10;0.10;;;;;;;;;;4961510;28;20034;-88
2022/04/09 10:48:31;;;;;;;0.17;0.17;;;;;;;;;;4978202;28;20092;-87
2022/04/09 10:50:58;;;;;;;0.10;0.10;;;;;;;;;;4961855;28;20030;-89
2022/04/09 10:53:25;;;;;;;0.10;0.10;;;;;;;;;;4945885;28;20109;-88
2022/04/09 10:56:13;;;;;;;0.10;0.10;;;;;;;;;;4961647;28;20042;-87
2022/04/09 10:58:59;;;;;;;0.10;0.10;;;;;;;;;;4977633;28;20050;-88
2022/04/09 11:01:48;;;;;;;0.10;0.10;;;;;;;;;;4961584;28;20046;-89
2022/04/09 11:04:43;;;;;;;0.10;0.10;;;;;;;;;;4961302;28;20047;-89
2022/04/09 11:07:14;;;;;;;0.10;0.10;;;;;;;;;;4949541;28;20050;-88
2022/04/09 11:09:43;;;;;;;0.10;0.10;;;;;;;;;;4961370;28;20086;-88
2022/04/09 11:12:09;;;;;;;0.10;0.10;;;;;;;;;;4961800;28;20217;-89
2022/04/09 11:14:45;;;;;;;3.30;0.25;;;;;;;;;;4961842;28;20210;-89
2022/04/09 11:17:24;;;;;;;0.10;0.10;;;;;;;;;;4945273;28;20096;-90
2022/04/09 11:19:50;;;;;;;0.10;0.10;;;;;;;;;;4945479;28;20041;-89
2022/04/09 11:22:16;;;;;;;0.10;0.10;;;;;;;;;;4945273;28;20049;-89
2022/04/09 11:24:42;;;;;;;0.17;0.17;;;;;;;;;;4945157;28;20058;-88
2022/04/09 11:27:10;;;;;;;0.20;0.20;;;;;;;;;;4945210;28;20044;-87
2022/04/09 11:29:36;;;;;;;0.10;0.10;;;;;;;;;;4945347;28;20121;-88
2022/04/09 11:32:02;;;;;;;0.10;0.10;;;;;;;;;;4945015;28;20045;-87
2022/04/09 11:34:28;;;;;;;0.10;0.10;;;;;;;;;;4945009;28;20038;-88
2022/04/09 11:37:10;;;;;;;0.10;0.10;;;;;;;;;;4960971;28;20097;-87
2022/04/09 11:39:43;;;;;;;0.30;0.30;;;;;;;;;;4960743;28;20042;-87
2022/04/09 11:42:09;;;;;;;;;;;;;;;;;;4945058;28;20085;-87
2022/04/09 11:44:35;;;;;;;0.10;0.10;;;;;;;;;;4976569;28;19922;-87
2022/04/09 11:47:17;;;;;;;0.10;0.10;;;;;;;;;;4960656;28;20138;-87
2022/04/09 11:49:47;;;;;;;6.93;0.75;;;;;;;;;;4976635;28;20065;-88
2022/04/09 11:52:13;;;;;;;0.10;0.10;;;;;;;;;;4944892;28;20077;-88
2022/04/09 11:54:40;;;;;;;0.10;0.10;;;;;;;;;;4960439;28;20053;-89
2022/04/09 11:57:12;;;;;;;0.10;0.10;;;;;;;;;;4960676;28;20064;-89
2022/04/09 11:59:38;;;;;;;0.10;0.10;;;;;;;;;;4960421;28;20559;-89
2022/04/09 12:02:04;;;;;;;0.10;0.10;;;;;;;;;;4944570;28;20160;-88
2022/04/09 12:04:36;;;;;;;0.10;0.10;;;;;;;;;;4944435;28;20049;-89
2022/04/09 12:07:03;;;;;;;0.10;0.10;;;;;;;;;;4960328;28;20050;-89
2022/04/09 12:09:29;;;;;;;0.10;0.10;;;;;;;;;;4944625;28;20136;-89
2022/04/09 12:11:55;;;;;;;0.10;0.10;;;;;;;;;;4944734;28;20049;-88
2022/04/09 12:14:23;;;;;;;0.10;0.10;;;;;;;;;;4960506;28;20042;-90
2022/04/09 12:16:50;;;;;;;0.10;0.10;;;;;;;;;;4944738;28;20046;-89
2022/04/09 12:19:16;;;;;;;0.10;0.10;;;;;;;;;;4944536;28;20042;-89
2022/04/09 12:21:42;;;;;;;0.10;0.10;;;;;;;;;;4944326;28;20046;-89
2022/04/09 12:24:09;;;;;;;0.10;0.10;;;;;;;;;;4944593;28;20469;-89
2022/04/09 12:26:42;;;;;;;0.20;0.20;;;;;;;;;;4944237;28;20089;-89
2022/04/09 12:29:12;;;;;;;0.10;0.10;;;;;;;;;;4960444;28;20153;-89
2022/04/09 12:31:38;;;;;;;0.10;0.10;;;;;;;;;;4976180;28;20062;-92
2022/04/09 12:34:05;;;;;;;0.10;0.10;;;;;;;;;;4960102;28;20053;-88
2022/04/09 12:36:31;;;;;;;0.10;0.10;;;;;;;;;;4960168;28;20049;-90
2022/04/09 12:38:57;;;;;;;0.10;0.10;;;;;;;;;;4944388;28;20065;-89
2022/04/09 12:41:23;;;;;;;0.10;0.10;;;;;;;;;;4944077;28;20050;-89
2022/04/09 12:43:52;;;;;;;0.10;0.10;;;;;;;;;;4959953;28;20042;-88
2022/04/09 12:46:18;;;;;;;0.65;0.65;;;;;;;;;;4944325;28;20038;-88
2022/04/09 12:48:45;;;;;;;0.10;0.10;;;;;;;;;;4960147;28;20046;-88
2022/04/09 12:51:13;;;;;;;0.15;0.15;;;;;;;;;;4944204;28;20042;-88
2022/04/09 12:53:39;;;;;;;0.10;0.10;;;;;;;;;;4944146;28;20046;-89
2022/04/09 12:56:08;;;;;;;0.10;0.10;;;;;;;;;;4944481;28;20042;-90
2022/04/09 12:58:34;;;;;;;0.10;0.10;;;;;;;;;;4944074;28;20153;-89
2022/04/09 13:01:00;;;;;;;0.10;0.10;;;;;;;;;;4960184;28;20509;-89
2022/04/09 13:03:26;;;;;;;0.10;0.10;;;;;;;;;;4943155;28;20070;-89
2022/04/09 13:05:52;;;;;;;0.10;0.10;;;;;;;;;;4959105;28;20088;-89
2022/04/09 13:08:18;;;;;;;0.10;0.10;;;;;;;;;;4943366;28;20137;-89
2022/04/09 13:10:44;;;;;;;0.10;0.10;;;;;;;;;;4951028;28;20524;-88
2022/04/09 13:13:10;;;;;;;0.10;0.10;;;;;;;;;;4924434;28;20066;-87
2022/04/09 13:15:36;;;;;;;0.38;0.30;;;;;;;;;;4924363;28;20042;-87
2022/04/09 13:18:02;;;;;;;0.10;0.10;;;;;;;;;;4924606;28;20057;-89
2022/04/09 13:20:28;;;;;;;0.10;0.10;;;;;;;;;;4924547;28;20100;-87
2022/04/09 13:22:54;;;;;;;0.10;0.10;;;;;;;;;;4940152;28;20035;-89
2022/04/09 13:25:21;;;;;;;0.10;0.10;;;;;;;;;;4924847;28;20466;-88
2022/04/09 13:27:49;;;;;;;0.10;0.10;;;;;;;;;;4924909;28;20039;-89
2022/04/09 13:30:15;;;;;;;0.10;0.10;;;;;;;;;;4924674;28;20038;-88
2022/04/09 13:32:41;;;;;;;0.10;0.10;;;;;;;;;;4924190;28;20053;-90
2022/04/09 13:35:09;;;;;;;0.10;0.10;;;;;;;;;;4924741;28;20133;-89
2022/04/09 13:37:34;;;;;;;0.10;0.10;;;;;;;;;;4924834;28;20045;-88
2022/04/09 13:40:00;;;;;;;1.65;0.22;;;;;;;;;;4924433;28;20398;-89
2022/04/09 13:42:26;;;;;;;0.10;0.10;;;;;;;;;;4924022;28;20047;-87
2022/04/09 13:44:52;;;;;;;0.32;0.28;;;;;;;;;;4924883;28;20054;-90
2022/04/09 13:47:18;;;;;;;0.10;0.10;;;;;;;;;;4940600;28;20046;-91
2022/04/09 13:49:44;;;;;;;0.10;0.10;;;;;;;;;;4924863;28;20465;-90
2022/04/09 13:52:11;;;;;;;0.20;0.20;;;;;;;;;;4924859;28;20035;-89
2022/04/09 13:54:37;;;;;;;0.10;0.10;;;;;;;;;;4941202;28;20434;-90
2022/04/09 13:57:03;;;;;;;0.10;0.10;;;;;;;;;;4921628;29;20043;-91
2022/04/09 13:59:29;;;;;;;0.10;0.10;;;;;;;;;;4922008;29;20047;-88
2022/04/09 14:01:55;;;;;;;1.08;0.20;;;;;;;;;;4921290;29;20039;-90
2022/04/09 14:04:22;;;;;;;0.10;0.10;;;;;;;;;;4921324;29;20051;-90
2022/04/09 14:06:48;;;;;;;0.10;0.10;;;;;;;;;;4921424;29;20048;-90
2022/04/09 14:09:14;;;;;;;0.10;0.10;;;;;;;;;;4921020;29;20055;-89
2022/04/09 14:11:40;;;;;;;0.10;0.10;;;;;;;;;;4921320;28;20046;-89
2022/04/09 14:14:06;;;;;;;0.10;0.10;;;;;;;;;;4921075;29;20407;-90
2022/04/09 14:16:32;;;;;;;0.10;0.10;;;;;;;;;;4922498;29;20039;-89
2022/04/09 14:18:58;;;;;;;0.10;0.10;;;;;;;;;;4924676;29;20051;-89
2022/04/09 14:21:26;;;;;;;0.20;0.20;;;;;;;;;;4924314;28;20047;-91
2022/04/09 14:23:52;;;;;;;0.10;0.10;;;;;;;;;;4924563;29;20509;-88
2022/04/09 14:26:18;;;;;;;2.28;1.00;;;;;;;;;;4926526;28;20154;-89
2022/04/09 14:28:44;;;;;;;0.10;0.10;;;;;;;;;;4924664;29;20070;-88
2022/04/09 14:31:10;;;;;;;0.10;0.10;;;;;;;;;;4925328;28;20074;-89
2022/04/09 14:33:37;;;;;;;0.10;0.10;;;;;;;;;;4951272;28;20053;-89
2022/04/09 14:36:03;;;;;;;0.10;0.10;;;;;;;;;;4934727;28;20047;-87
2022/04/09 14:38:29;;;;;;;0.10;0.10;;;;;;;;;;4943138;28;20470;-88
2022/04/09 14:40:55;;;;;;;0.10;0.10;;;;;;;;;;4929472;28;20058;-89
2022/04/09 14:43:22;;;;;;;0.10;0.10;;;;;;;;;;4937737;28;20042;-88